Time,TemperatureF,DewpointF,PressureIn,WindDirection,WindDirectionDegrees,WindSpeedMPH,WindSpeedGustMPH,Humidity,HourlyPrecipIn,Conditions,Clouds,dailyrainin,SoftwareType,DateUTC
2013-11-01 00:13:00,71.1,68.0,30.00,South,176,0.0,0.0,90,0.00,,,0.00,weatherlink.com 1.10,2013-11-01 04:13:00,
2013-11-01 00:28:00,70.8,68.0,30.00,South,176,0.0,0.0,90,0.00,,,0.00,weatherlink.com 1.10,2013-11-01 04:28:00,
2013-11-01 00:43:00,70.5,68.0,30.00,South,176,0.0,0.0,90,0.00,,,0.00,weatherlink.com 1.10,2013-11-01 04:43:00,
2013-11-01 00:58:00,70.3,68.0,30.00,South,176,0.0,0.0,91,0.00,,,0.00,weatherlink.com 1.10,2013-11-01 04:58:00,
2013-11-01 01:13:00,70.0,67.0,30.00,South,176,0.0,0.0,91,0.00,,,0.00,weatherlink.com 1.10,2013-11-01 05:13:00,
2013-11-01 01:28:00,69.6,67.0,29.99,South,176,0.0,0.0,91,0.00,,,0.00,weatherlink.com 1.10,2013-11-01 05:28:00,
2013-11-01 01:43:00,69.2,67.0,29.99,South,176,0.0,0.0,92,0.00,,,0.00,weatherlink.com 1.10,2013-11-01 05:43:00,
2013-11-01 01:58:00,68.8,66.0,29.98,South,176,0.0,0.0,92,0.00,,,0.00,weatherlink.com 1.10,2013-11-01 05:58:00,
2013-11-01 02:13:00,68.5,66.0,29.98,South,176,0.0,0.0,92,0.00,,,0.00,weatherlink.com 1.10,2013-11-01 06:13:00,
2013-11-01 02:28:00,68.0,66.0,29.98,South,176,0.0,0.0,92,0.00,,,0.00,weatherlink.com 1.10,2013-11-01 06:28:00,
2013-11-01 02:43:00,67.7,65.0,29.98,South,176,0.0,0.0,92,0.00,,,0.00,weatherlink.com 1.10,2013-11-01 06:43:00,
2013-11-01 02:58:00,67.3,65.0,29.97,South,176,0.0,0.0,92,0.00,,,0.00,weatherlink.com 1.10,2013-11-01 06:58:00,
2013-11-01 03:13:00,66.9,65.0,29.97,South,176,0.0,0.0,92,0.00,,,0.00,weatherlink.com 1.10,2013-11-01 07:13:00,
2013-11-01 03:28:00,66.7,64.0,29.97,South,176,0.0,0.0,92,0.00,,,0.00,weatherlink.com 1.10,2013-11-01 07:28:00,
2013-11-01 03:43:00,66.4,64.0,29.97,South,176,0.0,0.0,93,0.00,,,0.00,weatherlink.com 1.10,2013-11-01 07:43:00,
2013-11-01 03:58:00,66.0,64.0,29.96,South,176,0.0,0.0,93,0.00,,,0.00,weatherlink.com 1.10,2013-11-01 07:58:00,
2013-11-01 04:14:00,65.6,64.0,29.96,South,176,0.0,0.0,93,0.00,,,0.00,weatherlink.com 1.10,2013-11-01 08:14:00,
2013-11-01 04:29:00,65.1,63.0,29.95,South,176,0.0,0.0,93,0.00,,,0.00,weatherlink.com 1.10,2013-11-01 08:29:00,
2013-11-01 04:44:00,64.8,63.0,29.96,South,176,0.0,0.0,93,0.00,,,0.00,weatherlink.com 1.10,2013-11-01 08:44:00,
2013-11-01 04:59:00,64.4,62.0,29.96,South,176,0.0,0.0,93,0.00,,,0.00,weatherlink.com 1.10,2013-11-01 08:59:00,
2013-11-01 05:14:00,64.1,62.0,29.96,South,176,0.0,0.0,93,0.00,,,0.00,weatherlink.com 1.10,2013-11-01 09:14:00,
2013-11-01 05:29:00,63.7,62.0,29.97,South,176,0.0,0.0,93,0.00,,,0.00,weatherlink.com 1.10,2013-11-01 09:29:00,
2013-11-01 05:44:00,63.5,62.0,29.97,South,176,0.0,0.0,93,0.00,,,0.00,weatherlink.com 1.10,2013-11-01 09:44:00,
2013-11-01 05:59:00,63.5,62.0,29.97,South,176,0.0,0.0,94,0.00,,,0.00,weatherlink.com 1.10,2013-11-01 09:59:00,
2013-11-01 06:14:00,63.3,62.0,29.96,South,176,0.0,0.0,94,0.00,,,0.00,weatherlink.com 1.10,2013-11-01 10:14:00,
2013-11-01 06:29:00,63.0,61.0,29.96,South,176,0.0,0.0,94,0.00,,,0.00,weatherlink.com 1.10,2013-11-01 10:29:00,
2013-11-01 06:44:00,62.7,61.0,29.97,South,176,0.0,0.0,94,0.00,,,0.00,weatherlink.com 1.10,2013-11-01 10:44:00,
2013-11-01 06:59:00,62.6,61.0,29.97,South,176,0.0,0.0,94,0.00,,,0.00,weatherlink.com 1.10,2013-11-01 10:59:00,
2013-11-01 07:14:00,62.6,61.0,29.97,South,176,0.0,0.0,95,0.00,,,0.00,weatherlink.com 1.10,2013-11-01 11:14:00,
2013-11-01 07:29:00,62.7,61.0,29.97,South,176,0.0,0.0,95,0.00,,,0.00,weatherlink.com 1.10,2013-11-01 11:29:00,
2013-11-01 07:44:00,62.7,61.0,29.97,South,176,0.0,0.0,95,0.00,,,0.00,weatherlink.com 1.10,2013-11-01 11:44:00,
2013-11-01 07:59:00,63.0,62.0,29.98,South,176,0.0,0.0,96,0.00,,,0.00,weatherlink.com 1.10,2013-11-01 11:59:00,
2013-11-01 08:14:00,63.9,63.0,29.98,South,176,0.0,0.0,96,0.00,,,0.00,weatherlink.com 1.10,2013-11-01 12:14:00,
2013-11-01 08:29:00,66.0,65.0,29.98,South,176,0.0,0.0,97,0.00,,,0.00,weatherlink.com 1.10,2013-11-01 12:29:00,
2013-11-01 08:44:00,68.3,68.0,29.98,South,176,0.0,0.0,97,0.00,,,0.00,weatherlink.com 1.10,2013-11-01 12:44:00,
2013-11-01 08:59:00,69.5,69.0,29.98,South,186,1.0,2.0,97,0.00,,,0.00,weatherlink.com 1.10,2013-11-01 12:59:00,
2013-11-01 09:14:00,70.3,69.0,29.98,SSW,192,1.0,2.0,97,0.00,,,0.00,weatherlink.com 1.10,2013-11-01 13:14:00,
2013-11-01 09:29:00,70.3,69.0,29.98,SSW,192,0.0,1.0,97,0.00,,,0.00,weatherlink.com 1.10,2013-11-01 13:29:00,
2013-11-01 09:44:00,70.4,70.0,29.98,SSW,192,0.0,0.0,97,0.00,,,0.00,weatherlink.com 1.10,2013-11-01 13:44:00,
2013-11-01 09:59:00,70.9,70.0,29.98,SSW,192,0.0,0.0,97,0.00,,,0.00,weatherlink.com 1.10,2013-11-01 13:59:00,
2013-11-01 10:14:00,71.5,71.0,29.98,SSW,192,0.0,0.0,97,0.00,,,0.00,weatherlink.com 1.10,2013-11-01 14:14:00,
2013-11-01 10:29:00,73.1,72.0,29.98,SSW,192,0.0,2.0,97,0.00,,,0.00,weatherlink.com 1.10,2013-11-01 14:29:00,
2013-11-01 10:44:00,73.8,72.0,29.98,SSW,192,0.0,1.0,95,0.00,,,0.00,weatherlink.com 1.10,2013-11-01 14:44:00,
2013-11-01 10:59:00,74.8,73.0,29.97,SSW,192,0.0,1.0,94,0.00,,,0.00,weatherlink.com 1.10,2013-11-01 14:59:00,
2013-11-01 11:14:00,75.6,73.0,29.97,South,183,0.0,3.0,92,0.00,,,0.00,weatherlink.com 1.10,2013-11-01 15:14:00,
2013-11-01 11:29:00,78.0,74.0,29.96,SSW,199,3.0,3.0,88,0.00,,,0.00,weatherlink.com 1.10,2013-11-01 15:29:00,
2013-11-01 11:44:00,79.8,73.0,29.96,SSW,198,3.0,9.0,79,0.00,,,0.00,weatherlink.com 1.10,2013-11-01 15:44:00,
2013-11-01 11:59:00,81.9,72.0,29.96,SE,136,3.0,7.0,73,0.00,,,0.00,weatherlink.com 1.10,2013-11-01 15:59:00,
2013-11-01 12:14:00,82.8,73.0,29.95,SSE,154,2.0,7.0,73,0.00,,,0.00,weatherlink.com 1.10,2013-11-01 16:14:00,
2013-11-01 12:29:00,83.4,73.0,29.94,SSW,196,1.0,6.0,71,0.00,,,0.00,weatherlink.com 1.10,2013-11-01 16:29:00,
2013-11-01 12:44:00,84.4,73.0,29.94,South,190,1.0,7.0,68,0.00,,,0.00,weatherlink.com 1.10,2013-11-01 16:44:00,
2013-11-01 12:59:00,84.9,71.0,29.93,SW,231,4.0,9.0,64,0.00,,,0.00,weatherlink.com 1.10,2013-11-01 16:59:00,
2013-11-01 13:15:00,85.2,71.0,29.92,SSW,208,7.0,13.0,63,0.00,,,0.00,weatherlink.com 1.10,2013-11-01 17:15:00,
2013-11-01 13:30:00,85.8,70.0,29.91,SSW,200,3.0,7.0,60,0.00,,,0.00,weatherlink.com 1.10,2013-11-01 17:30:00,
2013-11-01 13:45:00,86.1,72.0,29.91,South,186,1.0,11.0,63,0.00,,,0.00,weatherlink.com 1.10,2013-11-01 17:45:00,
2013-11-01 14:00:00,86.9,70.0,29.90,SW,225,5.0,11.0,57,0.00,,,0.00,weatherlink.com 1.10,2013-11-01 18:00:00,
2013-11-01 14:15:00,86.6,70.0,29.89,South,178,2.0,9.0,58,0.00,,,0.00,weatherlink.com 1.10,2013-11-01 18:15:00,
2013-11-01 14:30:00,87.1,69.0,29.88,SSW,195,2.0,12.0,56,0.00,,,0.00,weatherlink.com 1.10,2013-11-01 18:30:00,
2013-11-01 14:45:00,87.1,69.0,29.88,South,184,3.0,9.0,55,0.00,,,0.00,weatherlink.com 1.10,2013-11-01 18:45:00,
2013-11-01 15:00:00,87.1,69.0,29.88,South,188,3.0,12.0,55,0.00,,,0.00,weatherlink.com 1.10,2013-11-01 19:00:00,
2013-11-01 15:15:00,88.0,69.0,29.88,SSE,159,3.0,13.0,54,0.00,,,0.00,weatherlink.com 1.10,2013-11-01 19:15:00,
2013-11-01 15:30:00,87.7,68.0,29.88,SW,221,3.0,9.0,53,0.00,,,0.00,weatherlink.com 1.10,2013-11-01 19:30:00,
2013-11-01 15:45:00,87.5,68.0,29.87,SSW,206,6.0,8.0,53,0.00,,,0.00,weatherlink.com 1.10,2013-11-01 19:45:00,
2013-11-01 16:15:00,87.0,67.0,29.87,SW,219,3.0,8.0,52,0.00,,,0.00,weatherlink.com 1.10,2013-11-01 20:15:00,
2013-11-01 16:30:00,87.1,66.0,29.87,SSW,197,6.0,10.0,50,0.00,,,0.00,weatherlink.com 1.10,2013-11-01 20:30:00,
2013-11-01 16:45:00,86.6,65.0,29.86,SSW,204,3.0,9.0,49,0.00,,,0.00,weatherlink.com 1.10,2013-11-01 20:45:00,
2013-11-01 17:00:00,85.2,66.0,29.87,SSW,202,1.0,6.0,53,0.00,,,0.00,weatherlink.com 1.10,2013-11-01 21:00:00,
2013-11-01 17:15:00,84.7,68.0,29.87,SSW,209,1.0,6.0,58,0.00,,,0.00,weatherlink.com 1.10,2013-11-01 21:15:00,
2013-11-01 17:30:00,83.3,69.0,29.87,SSW,212,4.0,5.0,63,0.00,,,0.00,weatherlink.com 1.10,2013-11-01 21:30:00,
2013-11-01 17:45:00,82.7,71.0,29.87,SW,221,0.0,2.0,67,0.00,,,0.00,weatherlink.com 1.10,2013-11-01 21:45:00,
2013-11-01 18:00:00,82.2,71.0,29.87,SW,227,1.0,3.0,68,0.00,,,0.00,weatherlink.com 1.10,2013-11-01 22:00:00,
2013-11-01 18:15:00,82.3,70.0,29.88,SW,227,4.0,7.0,67,0.00,,,0.00,weatherlink.com 1.10,2013-11-01 22:15:00,
2013-11-01 18:30:00,81.9,70.0,29.88,SSW,209,2.0,6.0,68,0.00,,,0.00,weatherlink.com 1.10,2013-11-01 22:30:00,
2013-11-01 18:45:00,81.4,70.0,29.88,WSW,241,1.0,4.0,69,0.00,,,0.00,weatherlink.com 1.10,2013-11-01 22:45:00,
2013-11-01 19:00:00,80.7,70.0,29.88,SSW,211,2.0,4.0,70,0.00,,,0.00,weatherlink.com 1.10,2013-11-01 23:00:00,
2013-11-01 19:15:00,79.7,70.0,29.89,SW,231,0.0,3.0,71,0.00,,,0.00,weatherlink.com 1.10,2013-11-01 23:15:00,
2013-11-01 19:30:00,79.0,69.0,29.89,SW,231,0.0,1.0,72,0.00,,,0.00,weatherlink.com 1.10,2013-11-01 23:30:00,
2013-11-01 19:45:00,78.2,69.0,29.88,SW,231,0.0,0.0,74,0.00,,,0.00,weatherlink.com 1.10,2013-11-01 23:45:00,
2013-11-01 20:00:00,77.1,69.0,29.89,SW,231,0.0,3.0,76,0.00,,,0.00,weatherlink.com 1.10,2013-11-02 00:00:00,
2013-11-01 20:15:00,76.0,69.0,29.88,SW,231,0.0,1.0,78,0.00,,,0.00,weatherlink.com 1.10,2013-11-02 00:15:00,
2013-11-01 20:30:00,75.2,69.0,29.89,SW,231,0.0,1.0,80,0.00,,,0.00,weatherlink.com 1.10,2013-11-02 00:30:00,
2013-11-01 20:45:00,74.4,69.0,29.89,SW,231,0.0,1.0,82,0.00,,,0.00,weatherlink.com 1.10,2013-11-02 00:45:00,
2013-11-01 21:00:00,73.7,68.0,29.89,SW,231,0.0,1.0,83,0.00,,,0.00,weatherlink.com 1.10,2013-11-02 01:00:00,
2013-11-01 21:15:00,73.1,68.0,29.89,SW,231,0.0,1.0,84,0.00,,,0.00,weatherlink.com 1.10,2013-11-02 01:15:00,
2013-11-01 21:30:00,72.2,67.0,29.89,SW,231,0.0,0.0,84,0.00,,,0.00,weatherlink.com 1.10,2013-11-02 01:30:00,
2013-11-01 21:45:00,71.2,67.0,29.90,SW,231,2.0,2.0,86,0.00,,,0.00,weatherlink.com 1.10,2013-11-02 01:45:00,
2013-11-01 22:00:00,71.4,68.0,29.89,SSW,202,1.0,4.0,90,0.00,,,0.00,weatherlink.com 1.10,2013-11-02 02:00:00,
2013-11-01 22:15:00,71.7,69.0,29.90,SSW,206,1.0,4.0,90,0.00,,,0.00,weatherlink.com 1.10,2013-11-02 02:15:00,
2013-11-01 22:30:00,71.8,69.0,29.90,SSW,205,0.0,3.0,91,0.00,,,0.00,weatherlink.com 1.10,2013-11-02 02:30:00,
2013-11-01 22:45:00,71.6,69.0,29.91,SSW,204,0.0,1.0,91,0.00,,,0.00,weatherlink.com 1.10,2013-11-02 02:45:00,
2013-11-01 23:00:00,71.4,69.0,29.90,SSW,204,1.0,3.0,91,0.00,,,0.00,weatherlink.com 1.10,2013-11-02 03:00:00,
2013-11-01 23:15:00,71.1,69.0,29.90,SSW,204,0.0,1.0,92,0.00,,,0.00,weatherlink.com 1.10,2013-11-02 03:15:00,
2013-11-01 23:30:00,70.8,68.0,29.90,SSW,204,1.0,2.0,92,0.00,,,0.00,weatherlink.com 1.10,2013-11-02 03:30:00,
2013-11-01 23:45:00,70.7,69.0,29.90,SSW,205,0.0,1.0,93,0.00,,,0.00,weatherlink.com 1.10,2013-11-02 03:45:00,